Time;durP1;ratioP1;P1;durP2;ratioP2;P2;SDS_P1;SDS_P2;PMS_P1;PMS_P2;Temp;Humidity;BMP_temperature;BMP_pressure;BME280_temperature;BME280_humidity;BME280_pressure;Samples;Min_cycle;Max_cycle;Signal;HPM_P1;HPM_P2
2022/01/16 00:00:48;;;;;;;84.13;38.05;;;2.10;99.90;;;;;;4986495;28;20026;-93
2022/01/16 00:05:59;;;;;;;86.15;38.55;;;2.00;99.90;;;;;;5013943;28;20049;-95
2022/01/16 00:08:25;;;;;;;80.72;37.08;;;2.00;99.90;;;;;;4990806;28;20015;-94
2022/01/16 00:10:50;;;;;;;89.05;39.63;;;2.00;99.90;;;;;;4972646;28;20514;-93
2022/01/16 00:13:16;;;;;;;85.18;38.13;;;2.00;99.90;;;;;;4966822;28;20073;-93
2022/01/16 00:15:44;;;;;;;78.18;38.88;;;2.10;99.90;;;;;;4969596;28;20031;-94
2022/01/16 00:18:20;;;;;;;85.78;39.70;;;2.10;99.90;;;;;;4964431;28;20034;-94
2022/01/16 00:20:46;;;;;;;85.95;38.70;;;2.10;99.90;;;;;;4971047;28;20023;-92
2022/01/16 00:23:12;;;;;;;80.82;37.38;;;2.10;99.90;;;;;;4975595;28;20060;-93
2022/01/16 00:25:37;;;;;;;81.15;36.55;;;2.10;99.90;;;;;;4974241;28;20045;-94
2022/01/16 00:28:03;;;;;;;72.93;35.08;;;2.20;99.90;;;;;;4969922;28;20031;-92
2022/01/16 00:30:29;;;;;;;74.07;34.10;;;2.20;99.90;;;;;;4977247;28;20019;-93
2022/01/16 00:33:00;;;;;;;78.90;35.13;;;2.20;99.90;;;;;;4969824;28;20039;-93
2022/01/16 00:35:26;;;;;;;65.63;31.60;;;2.20;99.90;;;;;;4969347;28;20237;-91
2022/01/16 00:37:52;;;;;;;62.47;30.27;;;2.20;99.90;;;;;;4975753;28;20065;-91
2022/01/16 00:40:18;;;;;;;63.40;30.25;;;2.20;99.90;;;;;;4973459;28;20015;-92
2022/01/16 00:42:44;;;;;;;77.43;36.15;;;2.20;99.90;;;;;;4968693;28;20122;-93
2022/01/16 00:45:10;;;;;;;87.70;39.67;;;2.20;99.90;;;;;;4965503;28;20025;-93
2022/01/16 00:47:36;;;;;;;81.13;35.10;;;2.10;99.90;;;;;;4970444;28;20031;-92
2022/01/16 00:50:04;;;;;;;85.03;37.83;;;2.00;99.90;;;;;;4968967;28;20022;-92
2022/01/16 00:52:31;;;;;;;91.68;41.55;;;2.00;99.90;;;;;;4969756;28;20072;-93
2022/01/16 00:55:02;;;;;;;88.88;39.00;;;1.90;99.90;;;;;;4965537;28;20022;-91
2022/01/16 00:57:29;;;;;;;53.50;25.80;;;1.90;99.90;;;;;;4973558;28;20412;-91
2022/01/16 00:59:54;;;;;;;64.60;29.35;;;1.90;99.90;;;;;;4965842;28;20031;-92
2022/01/16 01:02:21;;;;;;;58.83;29.67;;;1.90;99.90;;;;;;4968931;28;20022;-94
2022/01/16 01:04:47;;;;;;;55.78;25.80;;;2.00;99.90;;;;;;4957640;28;20046;-92
2022/01/16 01:07:13;;;;;;;49.75;24.77;;;2.00;99.90;;;;;;4964833;28;20034;-94
2022/01/16 01:09:39;;;;;;;53.92;24.80;;;2.00;99.90;;;;;;4969199;28;20656;-91
2022/01/16 01:12:06;;;;;;;59.30;25.23;;;2.10;99.90;;;;;;4980548;28;20042;-93
2022/01/16 01:15:03;;;;;;;78.55;35.83;;;2.10;99.90;;;;;;4976034;28;20106;-92
2022/01/16 01:17:27;;;;;;;56.42;26.70;;;2.10;99.90;;;;;;4986880;28;20484;-94
2022/01/16 01:19:53;;;;;;;64.35;30.73;;;2.10;99.90;;;;;;4966805;28;20049;-92
2022/01/16 01:22:19;;;;;;;50.83;25.23;;;2.10;99.90;;;;;;4967583;28;20018;-92
2022/01/16 01:24:45;;;;;;;49.65;24.42;;;2.10;99.90;;;;;;4968558;28;20392;-92
2022/01/16 01:27:21;;;;;;;49.40;23.13;;;2.10;99.90;;;;;;4977230;28;20102;-93
2022/01/16 01:29:54;;;;;;;43.83;21.33;;;2.20;99.90;;;;;;4979814;28;20564;-91
2022/01/16 01:32:19;;;;;;;49.28;23.25;;;2.20;99.90;;;;;;4981912;28;20026;-91
2022/01/16 01:34:45;;;;;;;47.10;23.38;;;2.30;99.90;;;;;;4991602;28;20021;-92
2022/01/16 01:37:11;;;;;;;50.03;22.92;;;2.30;99.90;;;;;;4977059;28;20038;-93
2022/01/16 01:39:37;;;;;;;49.22;22.65;;;2.30;99.90;;;;;;4985107;28;20022;-91
2022/01/16 01:42:07;;;;;;;43.33;20.52;;;2.40;99.90;;;;;;5009437;28;20038;-91
2022/01/16 01:52:55;;;;;;;67.45;31.60;;;2.50;99.90;;;;;;4923593;29;20066;-96
2022/01/16 01:55:22;;;;;;;61.03;29.02;;;2.40;99.90;;;;;;4895173;29;20051;-94
2022/01/16 01:57:48;;;;;;;49.53;22.15;;;2.40;99.90;;;;;;4923472;29;20124;-94
2022/01/16 02:00:17;;;;;;;46.60;22.50;;;2.40;99.90;;;;;;4923815;29;20112;-92
2022/01/16 02:03:26;;;;;;;45.58;22.27;;;2.40;99.90;;;;;;4917963;29;20131;-94
2022/01/16 02:05:42;;;;;;;46.13;21.95;;;2.40;99.90;;;;;;4922086;29;20035;-94
2022/01/16 02:08:08;;;;;;;65.22;31.55;;;2.40;99.90;;;;;;4920131;29;20048;-93
2022/01/16 02:10:36;;;;;;;69.00;31.17;;;2.40;99.90;;;;;;4926275;29;20043;-93
2022/01/16 02:13:06;;;;;;;44.92;23.63;;;2.40;99.90;;;;;;4915932;29;20034;-94
2022/01/16 02:34:44;;;;;;;44.33;21.10;;;2.10;99.90;;;;;;4990854;28;20041;-94
2022/01/16 02:37:13;;;;;;;41.10;20.52;;;2.20;99.90;;;;;;4973640;28;20113;-93
2022/01/16 02:39:49;;;;;;;45.97;21.50;;;2.20;99.90;;;;;;4964197;28;20027;-93
2022/01/16 02:42:16;;;;;;;43.25;20.80;;;2.20;99.90;;;;;;4969309;28;20030;-94
2022/01/16 02:44:46;;;;;;;40.55;19.25;;;2.20;99.90;;;;;;4965264;28;20092;-93
2022/01/16 02:47:13;;;;;;;32.87;15.83;;;2.20;99.90;;;;;;4967577;28;20554;-94
2022/01/16 02:49:41;;;;;;;50.70;24.73;;;2.20;99.90;;;;;;4966262;28;20054;-93
2022/01/16 02:52:09;;;;;;;48.90;21.70;;;2.20;99.90;;;;;;4968163;28;20084;-94
2022/01/16 02:54:38;;;;;;;37.08;18.13;;;2.20;99.90;;;;;;4967355;28;20022;-94
2022/01/16 02:57:07;;;;;;;40.35;17.88;;;2.10;99.90;;;;;;4967974;28;20026;-96
2022/01/16 02:59:33;;;;;;;46.65;22.70;;;2.10;99.90;;;;;;4974144;28;20027;-93
2022/01/16 03:02:01;;;;;;;42.20;22.15;;;2.10;99.90;;;;;;4969899;28;20030;-93
2022/01/16 03:04:28;;;;;;;40.03;20.55;;;2.10;99.90;;;;;;4961394;28;20035;-92
2022/01/16 03:06:55;;;;;;;37.50;20.55;;;2.10;99.90;;;;;;4976742;28;20038;-94
2022/01/16 03:09:22;;;;;;;33.22;17.25;;;2.00;99.90;;;;;;4992070;28;20046;-93
2022/01/16 03:11:49;;;;;;;34.45;18.88;;;2.00;99.90;;;;;;4975989;28;20030;-92
2022/01/16 03:14:18;;;;;;;35.65;17.92;;;2.00;99.90;;;;;;4969507;28;20023;-94
2022/01/16 03:16:48;;;;;;;34.15;16.80;;;2.00;99.90;;;;;;4970448;28;20113;-94
2022/01/16 03:22:05;;;;;;;32.85;16.55;;;2.00;99.90;;;;;;4982721;28;20046;-93
2022/01/16 03:24:45;;;;;;;33.35;16.33;;;2.00;99.90;;;;;;4980172;28;20055;-94
2022/01/16 03:27:19;;;;;;;31.90;15.48;;;2.10;99.90;;;;;;4978734;28;20066;-93
2022/01/16 03:29:52;;;;;;;24.80;12.90;;;2.10;99.90;;;;;;4970238;28;20043;-94
2022/01/16 03:32:21;;;;;;;28.13;14.55;;;2.10;99.90;;;;;;4972657;28;20026;-95
2022/01/16 03:34:47;;;;;;;38.28;16.35;;;2.20;99.90;;;;;;4977021;28;20027;-94
2022/01/16 03:37:14;;;;;;;26.80;13.18;;;2.20;99.90;;;;;;4972644;28;20579;-94
2022/01/16 03:39:39;;;;;;;29.27;14.63;;;2.20;99.90;;;;;;4982867;28;20053;-93
2022/01/16 03:42:06;;;;;;;25.00;13.75;;;2.20;99.90;;;;;;4985385;28;20113;-94
2022/01/16 03:44:32;;;;;;;26.88;13.85;;;2.30;99.90;;;;;;4974788;28;20233;-94
2022/01/16 03:46:58;;;;;;;29.15;13.07;;;2.30;99.90;;;;;;4978074;28;20038;-93
2022/01/16 03:49:26;;;;;;;30.38;12.82;;;2.30;99.90;;;;;;4976471;28;20030;-94
2022/01/16 03:51:55;;;;;;;23.63;12.85;;;2.30;99.90;;;;;;4971717;28;20616;-94
2022/01/16 03:54:23;;;;;;;27.08;12.93;;;2.30;99.90;;;;;;4967819;28;20031;-93
2022/01/16 03:56:50;;;;;;;23.70;11.68;;;2.30;99.90;;;;;;4964690;28;20027;-92
2022/01/16 03:59:16;;;;;;;21.85;12.27;;;2.30;99.90;;;;;;4969561;28;20085;-94
2022/01/16 04:01:43;;;;;;;24.42;12.98;;;2.30;99.90;;;;;;4969215;28;20060;-94
2022/01/16 04:04:09;;;;;;;25.20;13.90;;;2.30;99.90;;;;;;4972779;28;20058;-93
2022/01/16 04:06:35;;;;;;;21.83;12.27;;;2.30;99.90;;;;;;4979071;28;20050;-93
2022/01/16 04:09:02;;;;;;;21.15;11.60;;;2.30;99.90;;;;;;4986092;28;20042;-92
2022/01/16 04:11:28;;;;;;;26.08;12.23;;;2.30;99.90;;;;;;4979299;28;20019;-92
2022/01/16 04:14:04;;;;;;;23.63;11.48;;;2.30;99.90;;;;;;4983017;28;20038;-92
2022/01/16 04:16:30;;;;;;;22.77;12.68;;;2.40;99.90;;;;;;4985464;28;20023;-94
2022/01/16 04:18:56;;;;;;;23.70;12.27;;;2.40;99.90;;;;;;4992045;28;20085;-94
2022/01/16 04:21:25;;;;;;;24.90;12.52;;;2.50;99.90;;;;;;4980689;28;20022;-94
2022/01/16 04:23:52;;;;;;;23.40;12.45;;;2.50;99.90;;;;;;4974471;28;20030;-93
2022/01/16 04:26:18;;;;;;;27.77;12.98;;;2.60;99.90;;;;;;4973329;28;20484;-93
2022/01/16 04:28:47;;;;;;;26.92;13.23;;;2.70;99.90;;;;;;4971335;28;20058;-92
2022/01/16 04:31:16;;;;;;;27.70;13.25;;;2.70;99.90;;;;;;4966855;28;20023;-93
2022/01/16 04:33:44;;;;;;;25.10;13.57;;;2.70;99.90;;;;;;4966581;28;20085;-95
2022/01/16 04:36:10;;;;;;;23.80;13.02;;;2.80;99.90;;;;;;4971803;28;20044;-93
2022/01/16 04:38:39;;;;;;;23.83;12.77;;;2.90;99.90;;;;;;4975434;28;20026;-93
2022/01/16 04:43:51;;;;;;;25.40;12.80;;;3.00;99.90;;;;;;4998217;28;20080;-92
2022/01/16 04:46:28;;;;;;;27.15;13.90;;;3.10;99.90;;;;;;4965531;28;20030;-92
2022/01/16 04:48:56;;;;;;;33.58;14.57;;;3.20;99.90;;;;;;4969404;28;20041;-92
2022/01/16 04:51:23;;;;;;;23.33;13.15;;;3.20;99.90;;;;;;4964586;28;20031;-92
2022/01/16 04:53:49;;;;;;;30.30;15.30;;;3.30;99.90;;;;;;4970267;28;20037;-92
2022/01/16 04:56:15;;;;;;;32.83;15.10;;;3.30;99.90;;;;;;4968687;28;20038;-93
2022/01/16 04:58:42;;;;;;;25.77;13.48;;;3.20;99.90;;;;;;4964232;28;20133;-92
2022/01/16 05:01:09;;;;;;;33.75;15.38;;;3.20;99.90;;;;;;4967654;28;20023;-93
2022/01/16 05:03:35;;;;;;;24.95;11.70;;;3.20;99.90;;;;;;4971485;28;20019;-92
2022/01/16 05:06:02;;;;;;;24.20;11.48;;;3.20;99.90;;;;;;4971676;28;20073;-91
2022/01/16 05:08:28;;;;;;;24.05;12.27;;;3.30;99.90;;;;;;4986427;28;20034;-92
2022/01/16 05:10:56;;;;;;;25.08;10.77;;;3.30;99.90;;;;;;4988788;28;20066;-91
2022/01/16 05:18:37;;;;;;;25.27;11.30;;;3.50;99.90;;;;;;4980947;28;20427;-93
2022/01/16 05:21:03;;;;;;;24.27;12.60;;;3.50;99.90;;;;;;4970859;28;20476;-91
2022/01/16 05:23:29;;;;;;;26.77;11.82;;;3.50;99.90;;;;;;4966255;28;20070;-92
2022/01/16 05:25:55;;;;;;;28.40;13.52;;;3.70;99.90;;;;;;4968369;28;20050;-91
2022/01/16 05:28:21;;;;;;;28.70;14.90;;;3.70;99.90;;;;;;4971744;28;20114;-91
2022/01/16 05:30:47;;;;;;;22.23;14.55;;;3.80;99.90;;;;;;4966985;28;20014;-92
2022/01/16 05:33:12;;;;;;;20.38;12.68;;;3.80;99.90;;;;;;4967940;28;20031;-92
2022/01/16 05:35:38;;;;;;;26.42;15.50;;;3.90;99.90;;;;;;4971109;28;20465;-91
2022/01/16 05:38:04;;;;;;;29.42;17.23;;;3.90;99.90;;;;;;4971712;28;20046;-93
2022/01/16 05:40:30;;;;;;;31.38;17.13;;;4.00;99.90;;;;;;4970103;28;20058;-92
2022/01/16 05:42:56;;;;;;;34.03;17.08;;;4.10;99.90;;;;;;4968644;28;20585;-92
2022/01/16 05:45:23;;;;;;;26.40;17.38;;;4.10;99.90;;;;;;4973977;28;20045;-92
2022/01/16 05:47:48;;;;;;;26.77;15.57;;;4.10;99.90;;;;;;4968525;28;20022;-92
2022/01/16 05:50:14;;;;;;;19.98;12.98;;;4.10;99.90;;;;;;4960846;28;20033;-93
2022/01/16 05:52:41;;;;;;;25.60;15.38;;;4.20;99.90;;;;;;4959949;28;20038;-92
2022/01/16 05:55:09;;;;;;;18.85;11.93;;;4.20;99.90;;;;;;4960693;28;20066;-93
2022/01/16 05:57:34;;;;;;;30.50;14.73;;;4.10;99.90;;;;;;4959477;28;20038;-92
2022/01/16 06:00:00;;;;;;;21.35;12.07;;;4.20;99.90;;;;;;4960193;28;20030;-93
2022/01/16 06:02:27;;;;;;;22.85;12.90;;;4.30;99.90;;;;;;4944339;28;20042;-91
2022/01/16 06:04:52;;;;;;;25.88;14.93;;;4.20;99.90;;;;;;4960213;28;20023;-92
2022/01/16 06:07:18;;;;;;;26.70;15.27;;;4.30;99.90;;;;;;4976693;28;20045;-93
2022/01/16 06:09:44;;;;;;;23.08;14.77;;;4.30;99.90;;;;;;4985847;28;20042;-93
2022/01/16 06:12:10;;;;;;;22.90;14.25;;;4.30;99.90;;;;;;4997579;28;20053;-93
2022/01/16 06:14:36;;;;;;;21.73;13.70;;;4.30;99.90;;;;;;4999046;28;20031;-93
2022/01/16 06:17:02;;;;;;;26.98;14.77;;;4.30;99.90;;;;;;4995257;28;20033;-93
2022/01/16 06:19:27;;;;;;;22.92;14.00;;;4.30;99.90;;;;;;4998882;28;20023;-93
2022/01/16 06:21:53;;;;;;;23.25;13.98;;;4.30;99.90;;;;;;4984953;28;20022;-92
2022/01/16 06:24:19;;;;;;;30.55;17.13;;;4.30;99.90;;;;;;4974127;28;20077;-93
2022/01/16 06:26:44;;;;;;;26.52;15.15;;;4.40;99.90;;;;;;4974949;28;20090;-93
2022/01/16 06:29:11;;;;;;;28.02;15.90;;;4.40;99.90;;;;;;4968519;28;20023;-94
2022/01/16 06:31:37;;;;;;;29.58;15.07;;;4.50;99.90;;;;;;4969013;28;20181;-93
2022/01/16 06:34:05;;;;;;;29.95;16.15;;;4.50;99.90;;;;;;4960764;28;20023;-93
2022/01/16 06:36:33;;;;;;;30.10;16.50;;;4.60;99.90;;;;;;5003023;28;20033;-95
2022/01/16 06:39:00;;;;;;;21.58;13.25;;;4.60;99.90;;;;;;4983995;28;20038;-92
2022/01/16 06:41:26;;;;;;;28.45;16.92;;;4.60;99.90;;;;;;4985293;28;20049;-93
2022/01/16 06:43:51;;;;;;;27.80;15.48;;;4.60;99.90;;;;;;5002475;28;20034;-93
2022/01/16 06:46:17;;;;;;;28.02;14.93;;;4.60;99.90;;;;;;4990076;28;20026;-92
2022/01/16 06:48:43;;;;;;;29.30;15.82;;;4.60;99.90;;;;;;4997520;28;20022;-95
2022/01/16 06:51:09;;;;;;;28.58;14.27;;;4.60;99.90;;;;;;5001293;28;20041;-91
2022/01/16 06:53:35;;;;;;;29.48;16.00;;;4.60;99.90;;;;;;5017965;28;20018;-91
2022/01/16 06:56:01;;;;;;;24.58;16.35;;;4.60;99.90;;;;;;4992480;28;20053;-93
2022/01/16 06:58:27;;;;;;;28.60;14.25;;;4.70;99.90;;;;;;4985324;28;20030;-94
2022/01/16 07:00:52;;;;;;;33.92;14.73;;;4.70;99.90;;;;;;4983295;28;20037;-93
2022/01/16 07:03:18;;;;;;;28.40;15.73;;;4.70;99.90;;;;;;4979267;28;20034;-92
2022/01/16 07:05:45;;;;;;;30.90;16.23;;;4.60;99.90;;;;;;4966940;28;20134;-93
2022/01/16 07:08:11;;;;;;;33.05;16.98;;;4.60;99.90;;;;;;4969066;28;20030;-93
2022/01/16 07:10:37;;;;;;;34.08;16.65;;;4.70;99.90;;;;;;4985925;28;20555;-93
2022/01/16 07:13:03;;;;;;;32.97;17.45;;;4.70;99.90;;;;;;4983735;28;20054;-92
2022/01/16 07:15:29;;;;;;;27.92;16.23;;;4.70;99.90;;;;;;4966490;28;20480;-93
2022/01/16 07:17:55;;;;;;;29.92;17.33;;;4.60;99.90;;;;;;4969359;28;20045;-91
2022/01/16 07:20:21;;;;;;;39.50;19.55;;;4.70;99.90;;;;;;4964225;28;20034;-94
2022/01/16 07:22:47;;;;;;;23.80;15.40;;;4.70;99.90;;;;;;4989878;28;20041;-93
2022/01/16 07:25:13;;;;;;;28.52;15.90;;;4.70;99.90;;;;;;4984303;28;20085;-92
2022/01/16 07:27:40;;;;;;;32.85;15.80;;;4.80;99.90;;;;;;4967992;28;20030;-94
2022/01/16 07:30:07;;;;;;;28.02;15.40;;;4.90;99.90;;;;;;4975294;28;20019;-92
2022/01/16 07:32:32;;;;;;;28.73;15.80;;;4.90;99.90;;;;;;4973185;28;20033;-91
2022/01/16 07:34:58;;;;;;;27.52;15.77;;;5.00;99.90;;;;;;4998438;28;20014;-94
2022/01/16 07:37:24;;;;;;;29.08;15.93;;;5.00;99.90;;;;;;4991522;28;20094;-92
2022/01/16 07:39:50;;;;;;;27.42;14.13;;;5.10;99.90;;;;;;4967611;28;20180;-95
2022/01/16 07:42:16;;;;;;;22.98;14.68;;;5.10;99.90;;;;;;4975704;28;20480;-94
2022/01/16 07:44:48;;;;;;;25.15;14.75;;;5.10;99.90;;;;;;4973686;28;20039;-94
2022/01/16 07:47:14;;;;;;;28.42;14.68;;;5.20;99.90;;;;;;4981548;28;20046;-92
2022/01/16 07:49:40;;;;;;;26.25;14.40;;;5.20;99.90;;;;;;4984253;28;20030;-94
2022/01/16 07:52:09;;;;;;;28.70;15.90;;;5.20;99.90;;;;;;4973011;28;20033;-93
2022/01/16 07:54:41;;;;;;;27.48;15.82;;;5.30;99.90;;;;;;4971783;28;20026;-94
2022/01/16 07:57:06;;;;;;;31.17;14.68;;;5.30;99.90;;;;;;4971826;28;20022;-93
2022/01/16 07:59:32;;;;;;;25.52;14.55;;;5.30;99.90;;;;;;4978987;28;20036;-93
2022/01/16 08:01:58;;;;;;;28.15;13.85;;;5.40;99.90;;;;;;4974166;28;20532;-93
2022/01/16 08:04:24;;;;;;;30.30;14.15;;;5.40;99.90;;;;;;4981587;28;20022;-92
2022/01/16 08:06:51;;;;;;;28.00;12.98;;;5.40;99.90;;;;;;4978465;28;20500;-94
2022/01/16 08:09:20;;;;;;;26.63;13.85;;;5.40;99.90;;;;;;4983153;28;20054;-95
2022/01/16 08:11:46;;;;;;;25.35;13.10;;;5.50;99.90;;;;;;4993867;28;20034;-93
2022/01/16 08:14:12;;;;;;;21.75;10.48;;;5.50;99.90;;;;;;4976059;28;20024;-95
2022/01/16 08:16:41;;;;;;;27.27;14.20;;;5.60;99.90;;;;;;5012522;28;20033;-91
2022/01/16 08:19:07;;;;;;;24.17;11.23;;;5.60;99.90;;;;;;4995089;28;20076;-92
2022/01/16 08:21:33;;;;;;;26.02;12.48;;;5.70;99.90;;;;;;4984726;28;20113;-92
2022/01/16 08:24:00;;;;;;;20.10;12.27;;;5.70;99.90;;;;;;4987028;28;20026;-93
2022/01/16 08:26:25;;;;;;;21.30;11.15;;;5.70;99.90;;;;;;4975499;28;20022;-93
2022/01/16 08:28:52;;;;;;;21.05;11.52;;;5.80;99.90;;;;;;4980432;28;20108;-92
2022/01/16 08:31:18;;;;;;;24.98;11.55;;;5.80;99.90;;;;;;4986002;28;20046;-94
2022/01/16 08:33:45;;;;;;;20.67;10.73;;;5.80;99.90;;;;;;4979719;28;20400;-93
2022/01/16 08:36:18;;;;;;;22.42;11.00;;;5.70;99.90;;;;;;4986834;28;20038;-92
2022/01/16 08:38:44;;;;;;;22.08;11.35;;;5.70;99.90;;;;;;4973948;28;20037;-94
2022/01/16 08:41:12;;;;;;;19.00;10.88;;;5.70;99.90;;;;;;4981738;28;20025;-93
2022/01/16 08:43:44;;;;;;;26.23;10.23;;;5.70;99.90;;;;;;4982469;28;20046;-94
2022/01/16 08:46:13;;;;;;;20.00;10.75;;;5.70;99.90;;;;;;4972193;28;20045;-91
2022/01/16 08:48:39;;;;;;;26.10;12.25;;;5.70;99.90;;;;;;4976642;28;20033;-93
2022/01/16 08:51:04;;;;;;;19.50;9.73;;;5.70;99.90;;;;;;4975592;28;20030;-93
2022/01/16 08:53:33;;;;;;;22.75;11.82;;;5.70;99.90;;;;;;4975762;28;20107;-94
2022/01/16 08:55:59;;;;;;;23.92;11.63;;;5.80;99.90;;;;;;4971408;28;20045;-93
2022/01/16 08:58:33;;;;;;;23.92;11.00;;;5.80;99.90;;;;;;4971774;28;20135;-94
2022/01/16 09:01:19;;;;;;;28.70;10.85;;;5.70;99.90;;;;;;5005609;28;20061;-95
2022/01/16 09:03:47;;;;;;;24.25;12.05;;;5.70;99.90;;;;;;4980836;28;20126;-93
2022/01/16 09:06:22;;;;;;;21.83;11.50;;;5.70;99.90;;;;;;4976294;28;20174;-94
2022/01/16 09:08:48;;;;;;;22.20;11.27;;;5.70;99.90;;;;;;4974656;28;20030;-94
2022/01/16 09:11:14;;;;;;;24.80;11.85;;;5.70;99.90;;;;;;4972867;28;20065;-93
2022/01/16 09:13:41;;;;;;;20.05;10.50;;;5.80;99.90;;;;;;4970590;28;20018;-95
2022/01/16 09:16:07;;;;;;;16.85;9.50;;;5.80;99.90;;;;;;4976424;28;20018;-95
2022/01/16 09:18:33;;;;;;;20.38;10.55;;;5.80;99.90;;;;;;4975368;28;20027;-92
2022/01/16 09:21:02;;;;;;;24.63;11.10;;;5.80;99.90;;;;;;4980673;28;20018;-93
2022/01/16 09:23:29;;;;;;;19.23;9.48;;;5.80;99.90;;;;;;4987189;28;20022;-92
2022/01/16 09:25:55;;;;;;;20.63;10.35;;;5.80;99.90;;;;;;4987415;28;20041;-92
2022/01/16 09:28:21;;;;;;;22.77;10.07;;;5.90;99.90;;;;;;4984660;28;20062;-90
2022/01/16 09:30:46;;;;;;;20.73;10.75;;;5.90;99.90;;;;;;4986915;28;20018;-90
2022/01/16 09:33:15;;;;;;;18.70;10.60;;;6.00;99.90;;;;;;5004783;28;20022;-92
2022/01/16 09:35:41;;;;;;;16.38;8.60;;;6.10;99.90;;;;;;4978581;28;20081;-93
2022/01/16 09:38:07;;;;;;;18.65;8.90;;;6.20;99.90;;;;;;4975613;28;20050;-92
2022/01/16 09:40:34;;;;;;;17.65;9.30;;;6.40;99.90;;;;;;4973221;28;20022;-91
2022/01/16 09:43:01;;;;;;;18.05;9.30;;;6.50;99.90;;;;;;4965086;28;20109;-93
2022/01/16 09:45:27;;;;;;;15.85;8.05;;;6.80;99.90;;;;;;4962379;28;20026;-92
2022/01/16 09:47:52;;;;;;;13.05;7.82;;;7.00;99.90;;;;;;4964173;28;20058;-91
2022/01/16 09:50:21;;;;;;;12.15;7.30;;;7.20;99.90;;;;;;4965096;28;20054;-91
2022/01/16 09:52:50;;;;;;;16.15;6.68;;;7.30;99.90;;;;;;4968094;28;20547;-92
2022/01/16 09:55:18;;;;;;;15.60;8.38;;;7.50;99.90;;;;;;4969922;28;20042;-91
2022/01/16 09:57:44;;;;;;;14.88;7.88;;;7.70;99.90;;;;;;4970032;28;20029;-90
2022/01/16 10:00:13;;;;;;;16.52;8.02;;;7.90;99.90;;;;;;4965636;28;20134;-91
2022/01/16 10:02:42;;;;;;;19.15;7.70;;;7.90;99.90;;;;;;4979437;28;20037;-95
2022/01/16 10:05:43;;;;;;;12.63;6.57;;;8.00;99.90;;;;;;4979413;28;20026;-90
2022/01/16 10:08:13;;;;;;;12.68;7.25;;;8.10;99.90;;;;;;4885361;29;20041;-90
2022/01/16 10:10:41;;;;;;;14.25;7.15;;;8.00;99.90;;;;;;4889201;29;20044;-92
2022/01/16 10:13:41;;;;;;;12.73;6.38;;;8.00;99.90;;;;;;4899639;29;20121;-92
2022/01/16 10:16:07;;;;;;;12.80;6.55;;;8.00;99.90;;;;;;4904078;29;20041;-94
2022/01/16 10:18:38;;;;;;;13.95;6.50;;;8.00;99.90;;;;;;4870946;29;20395;-92
2022/01/16 10:21:04;;;;;;;11.35;6.55;;;7.90;99.90;;;;;;4884424;29;20044;-91
2022/01/16 10:23:41;;;;;;;14.88;6.40;;;7.90;99.90;;;;;;4876555;29;20032;-94
2022/01/16 10:26:21;;;;;;;12.25;7.13;;;7.90;99.90;;;;;;4878525;29;20043;-93
2022/01/16 10:28:47;;;;;;;16.05;7.22;;;7.90;99.90;;;;;;4884007;29;20127;-93
2022/01/16 10:31:22;;;;;;;17.13;6.50;;;7.90;99.90;;;;;;4883658;29;20028;-91
2022/01/16 10:33:48;;;;;;;11.70;6.65;;;7.90;99.90;;;;;;4874289;29;20029;-91
2022/01/16 10:36:37;;;;;;;9.98;6.05;;;7.90;99.90;;;;;;4866536;29;20041;-94
2022/01/16 10:39:11;;;;;;;17.80;6.82;;;8.10;99.90;;;;;;4872466;29;20017;-94
2022/01/16 10:41:38;;;;;;;11.70;5.82;;;8.20;99.90;;;;;;4896742;28;20069;-92
2022/01/16 10:44:09;;;;;;;13.90;6.45;;;8.30;99.90;;;;;;4959304;28;20029;-94
2022/01/16 10:46:35;;;;;;;11.38;6.25;;;8.30;99.90;;;;;;4961592;28;20539;-93
2022/01/16 10:49:18;;;;;;;11.77;5.60;;;8.20;99.90;;;;;;4960178;28;20034;-91
2022/01/16 10:52:02;;;;;;;11.35;6.18;;;8.10;99.90;;;;;;4960633;28;20035;-92
2022/01/16 10:54:37;;;;;;;14.00;5.65;;;8.00;99.90;;;;;;4961941;28;20046;-93
2022/01/16 10:57:23;;;;;;;11.38;6.78;;;8.00;99.90;;;;;;4970382;28;20082;-92
2022/01/16 11:00:03;;;;;;;13.82;6.97;;;8.00;99.90;;;;;;4977241;28;20015;-92
2022/01/16 11:02:30;;;;;;;16.20;7.30;;;8.00;99.90;;;;;;4966299;28;20027;-93
2022/01/16 11:05:13;;;;;;;15.18;8.35;;;8.00;99.90;;;;;;4964052;28;20027;-94
2022/01/16 11:07:39;;;;;;;14.95;8.35;;;8.10;99.90;;;;;;4961577;28;20027;-95
2022/01/16 11:10:26;;;;;;;11.55;6.47;;;8.10;99.90;;;;;;4963818;28;20038;-95
2022/01/16 11:12:52;;;;;;;12.20;6.97;;;8.10;99.90;;;;;;4962549;28;20030;-94
2022/01/16 11:15:18;;;;;;;20.05;7.60;;;8.20;99.90;;;;;;4964083;28;20061;-93
2022/01/16 11:17:44;;;;;;;13.00;6.63;;;8.10;99.90;;;;;;4977655;28;20018;-95
2022/01/16 11:20:10;;;;;;;15.07;7.10;;;8.10;99.90;;;;;;4998715;28;20030;-95
2022/01/16 11:22:57;;;;;;;12.18;6.95;;;8.10;99.90;;;;;;4990256;28;20027;-96
2022/01/16 11:25:31;;;;;;;11.10;7.05;;;8.10;99.90;;;;;;4977342;28;20026;-92
2022/01/16 11:28:04;;;;;;;15.82;8.75;;;8.00;99.90;;;;;;4961630;28;20046;-93
2022/01/16 11:30:33;;;;;;;18.88;9.00;;;8.00;99.90;;;;;;4969946;28;20023;-93
2022/01/16 11:32:59;;;;;;;14.63;7.22;;;8.00;99.90;;;;;;4972298;28;20022;-93
2022/01/16 11:35:26;;;;;;;15.05;7.15;;;7.90;99.90;;;;;;4964387;28;20785;-93
2022/01/16 11:37:52;;;;;;;15.13;6.68;;;7.90;99.90;;;;;;4966975;28;20022;-90
2022/01/16 11:40:27;;;;;;;10.02;6.07;;;7.90;99.90;;;;;;4980593;28;20081;-93
2022/01/16 11:43:16;;;;;;;11.93;6.47;;;7.80;99.90;;;;;;4978842;28;20356;-93
2022/01/16 11:46:10;;;;;;;13.98;6.72;;;7.80;99.90;;;;;;4974018;28;20093;-92
2022/01/16 11:48:53;;;;;;;10.15;5.85;;;7.70;99.90;;;;;;4959731;28;20034;-93
2022/01/16 11:51:39;;;;;;;15.60;6.20;;;7.70;99.90;;;;;;4962021;28;20053;-94
2022/01/16 11:54:28;;;;;;;10.25;5.70;;;7.70;99.90;;;;;;4959638;28;20023;-93
2022/01/16 11:56:57;;;;;;;12.10;4.63;;;7.70;99.90;;;;;;4965007;28;20035;-91
2022/01/16 11:59:24;;;;;;;12.80;5.63;;;7.60;99.90;;;;;;4960930;28;21824;-93
2022/01/16 12:02:08;;;;;;;14.05;4.72;;;7.60;99.90;;;;;;4972438;28;20033;-94
2022/01/16 12:04:34;;;;;;;6.57;4.28;;;7.60;99.90;;;;;;4970661;28;20027;-94
2022/01/16 12:07:12;;;;;;;6.28;4.22;;;7.60;99.90;;;;;;4971706;28;20057;-92
2022/01/16 12:10:19;;;;;;;11.38;4.45;;;7.50;99.90;;;;;;4967632;28;20138;-95
2022/01/16 12:12:31;;;;;;;11.15;4.72;;;7.50;99.90;;;;;;4977213;28;20480;-96
2022/01/16 12:15:05;;;;;;;8.05;3.75;;;7.50;99.90;;;;;;4970371;28;20113;-93
2022/01/16 12:17:39;;;;;;;9.57;4.55;;;7.50;99.90;;;;;;4969482;28;20023;-95
2022/01/16 12:20:14;;;;;;;10.52;4.90;;;7.40;99.90;;;;;;4966881;28;20058;-93
2022/01/16 12:22:56;;;;;;;17.98;6.25;;;7.40;99.90;;;;;;4976985;28;20066;-95
2022/01/16 12:25:44;;;;;;;10.57;5.15;;;7.40;99.90;;;;;;4991729;28;20030;-93
2022/01/16 12:28:10;;;;;;;15.82;5.65;;;7.40;99.90;;;;;;4993851;28;20034;-93
2022/01/16 12:30:39;;;;;;;9.18;5.35;;;7.40;99.90;;;;;;4994465;28;20082;-94
2022/01/16 12:33:09;;;;;;;10.15;5.97;;;7.40;99.90;;;;;;4986476;28;20086;-95
2022/01/16 12:35:41;;;;;;;10.93;6.43;;;7.30;99.90;;;;;;4984194;28;20025;-96
2022/01/16 12:38:19;;;;;;;12.05;6.05;;;7.40;99.90;;;;;;4993318;28;20029;-93
2022/01/16 12:40:48;;;;;;;22.85;7.68;;;7.30;99.90;;;;;;4975281;28;20014;-94
2022/01/16 12:43:24;;;;;;;16.92;7.82;;;7.30;99.90;;;;;;4974336;28;20062;-95
2022/01/16 12:45:50;;;;;;;16.15;6.85;;;7.30;99.90;;;;;;4969143;28;20482;-92
2022/01/16 12:48:16;;;;;;;12.40;6.78;;;7.30;99.90;;;;;;5004274;28;20026;-93
2022/01/16 12:50:41;;;;;;;15.25;6.97;;;7.30;99.90;;;;;;4969875;28;20017;-94
2022/01/16 12:53:07;;;;;;;15.48;8.35;;;7.20;99.90;;;;;;4969398;28;20045;-93
2022/01/16 12:55:34;;;;;;;16.95;8.43;;;7.20;99.90;;;;;;4987443;28;20076;-94
2022/01/16 12:58:20;;;;;;;18.85;9.95;;;7.20;99.90;;;;;;4970508;28;20430;-93
2022/01/16 13:01:04;;;;;;;21.52;8.90;;;7.20;99.90;;;;;;4969561;28;20034;-92
2022/01/16 13:03:32;;;;;;;21.10;10.32;;;7.20;99.90;;;;;;4971403;28;20030;-93
2022/01/16 13:06:26;;;;;;;19.67;8.68;;;7.10;99.90;;;;;;4985228;28;20035;-92
2022/01/16 13:09:09;;;;;;;15.88;8.48;;;7.10;99.90;;;;;;4972040;28;20038;-94
2022/01/16 13:11:42;;;;;;;16.63;8.55;;;7.10;99.90;;;;;;4972672;28;20041;-93
2022/01/16 13:14:17;;;;;;;18.52;9.00;;;7.10;99.90;;;;;;4974699;28;20034;-94
2022/01/16 13:16:50;;;;;;;16.83;8.85;;;7.10;99.90;;;;;;4971964;28;20328;-94
2022/01/16 13:19:25;;;;;;;18.25;8.82;;;7.10;99.90;;;;;;4976599;28;20054;-94
2022/01/16 13:22:11;;;;;;;18.58;9.60;;;7.10;99.90;;;;;;4972194;28;20105;-95
2022/01/16 13:24:47;;;;;;;18.30;11.23;;;7.10;99.90;;;;;;4980940;28;20046;-94
2022/01/16 13:27:24;;;;;;;15.45;9.82;;;7.10;99.90;;;;;;4981032;28;20061;-94
2022/01/16 13:30:05;;;;;;;22.17;10.48;;;7.10;99.90;;;;;;4981255;28;20069;-96
2022/01/16 13:32:34;;;;;;;18.33;10.15;;;7.20;99.90;;;;;;4983311;28;20034;-94